»·PEaware :: N717TS KFUL-KMRY

N717TS :: KFUL-KMRY

FLIGHT INFORMATION

Flight Status: Arrived
Operator: Privately registered:
United States
More flights under this callsign
Pilot: Ty S. (2873)
Aircraft: CESSNA 510 CITATION MUSTANG
(C510)
More flights by this aircraft type
Origin: KFUL Fullerton Mun
United States
Destination: KMRY Monterey Peninsula
United States
More flights between these airports :: More routes between these airports
Route: +SLI V459 LHS AVE WIGGL
File this flight plan on PilotEdge
Remarks:
Altitude:
(Current/Filed)
26,000ft
Speed:
(Current/Filed)
350kts
Departed: 05-Jul-19 06:25 PM
Arrived: 05-Jul-19 07:30 PM
Distance/Time
Traveled:
250nm/1:05
Distance/Time
To Go:
Arrived

Flight Plot

Page will automatically refresh every two minutes.


Map Options




Map Legend


Flown Route
Filed Route
Departure Airport
Arrival Airport
Navaid (VOR, NDB)
Fix

Horizontal Profiles

Position Reports

Time Latitude Longitude Heading Altitude Ground
Speed
05-Jul-19 18:03 33.871433 -117.978203 258 101ft 0kts
05-Jul-19 18:04 33.871433 -117.978203 258 101ft 0kts
05-Jul-19 18:05 33.871433 -117.978203 258 101ft 0kts
05-Jul-19 18:06 33.871433 -117.978203 258 101ft 0kts
05-Jul-19 18:07 33.871433 -117.978203 258 101ft 0kts
05-Jul-19 18:08 33.871433 -117.978203 258 101ft 0kts
05-Jul-19 18:09 33.871433 -117.978203 258 101ft 0kts
05-Jul-19 18:10 33.871433 -117.978203 258 101ft 0kts
05-Jul-19 18:11 33.871433 -117.978203 258 101ft 0kts
05-Jul-19 18:12 33.871433 -117.978203 258 101ft 0kts
05-Jul-19 18:13 33.871433 -117.978203 258 101ft 0kts
05-Jul-19 18:15 33.871433 -117.978203 258 101ft 0kts
05-Jul-19 18:16 33.871433 -117.978203 258 101ft 0kts
05-Jul-19 18:17 33.871433 -117.978203 258 101ft 0kts
05-Jul-19 18:18 33.871433 -117.978203 258 101ft 0kts
05-Jul-19 18:19 33.871424 -117.978332 279 101ft 7kts
05-Jul-19 18:20 33.872030 -117.977339 82 101ft 7kts
05-Jul-19 18:21 33.872555 -117.974911 65 101ft 0kts
05-Jul-19 18:22 33.872577 -117.974871 50 101ft 0kts
05-Jul-19 18:23 33.872948 -117.975063 255 101ft 0kts
05-Jul-19 18:24 33.872917 -117.975214 256 101ft 16kts
05-Jul-19 18:25 33.855251 -118.003985 192 1548ft 179kts
05-Jul-19 18:26 33.811707 -117.969970 132 4241ft 206kts
05-Jul-19 18:27 33.772140 -117.915344 132 7019ft 235kts
05-Jul-19 18:28 33.715818 -117.861622 184 6995ft 274kts
05-Jul-19 18:29 33.690224 -117.932929 298 6996ft 276kts
05-Jul-19 18:30 33.735759 -117.994606 312 10490ft 237kts
05-Jul-19 18:31 33.785002 -118.055190 326 11999ft 288kts
05-Jul-19 18:32 33.861541 -118.099766 334 11990ft 318kts
05-Jul-19 18:33 33.942678 -118.146363 334 11983ft 325kts
05-Jul-19 18:34 34.024449 -118.193506 334 11977ft 326kts
05-Jul-19 18:35 34.106493 -118.240899 334 11983ft 327kts
05-Jul-19 18:35 34.171792 -118.278610 333 13264ft 296kts
05-Jul-19 18:37 34.249207 -118.329691 315 16427ft 258kts
05-Jul-19 18:37 34.293651 -118.379889 313 18209ft 267kts
05-Jul-19 18:38 34.347710 -118.442299 313 20227ft 273kts
05-Jul-19 18:39 34.403166 -118.506507 312 22069ft 278kts
05-Jul-19 18:40 34.459539 -118.571913 312 23727ft 283kts
05-Jul-19 18:41 34.516778 -118.638414 312 25226ft 287kts
05-Jul-19 18:42 34.572537 -118.703394 312 26132ft 304kts
05-Jul-19 18:43 34.635147 -118.776420 312 26173ft 317kts
05-Jul-19 18:44 34.699287 -118.851464 312 26179ft 321kts
05-Jul-19 18:45 34.763332 -118.926659 313 26182ft 319kts
05-Jul-19 18:46 34.826833 -119.001311 315 26181ft 317kts
05-Jul-19 18:47 34.889879 -119.075339 315 26160ft 315kts
05-Jul-19 18:48 34.953404 -119.149295 314 26042ft 316kts
05-Jul-19 18:49 35.017021 -119.224186 312 25962ft 318kts
05-Jul-19 18:50 35.080690 -119.299863 311 25938ft 321kts
05-Jul-19 18:51 35.143851 -119.375169 312 25936ft 321kts
05-Jul-19 18:52 35.207797 -119.451324 312 25936ft 321kts
05-Jul-19 18:53 35.271790 -119.527611 312 25935ft 321kts
05-Jul-19 18:54 35.335622 -119.603956 312 25935ft 321kts
05-Jul-19 18:55 35.395430 -119.675587 311 25941ft 322kts
05-Jul-19 18:56 35.459470 -119.752466 311 25940ft 322kts
05-Jul-19 18:57 35.523458 -119.829459 311 25953ft 322kts
05-Jul-19 18:58 35.587336 -119.906497 311 25959ft 322kts
05-Jul-19 18:59 35.650339 -119.984975 301 25943ft 319kts
05-Jul-19 19:00 35.701402 -120.074183 301 25952ft 319kts
05-Jul-19 19:01 35.752127 -120.163187 301 25970ft 318kts
05-Jul-19 19:02 35.794104 -120.257602 287 25993ft 313kts
05-Jul-19 19:03 35.823474 -120.358964 287 25991ft 314kts
05-Jul-19 19:04 35.852545 -120.460637 287 25992ft 313kts
05-Jul-19 19:05 35.881290 -120.561906 287 25990ft 314kts
05-Jul-19 19:06 35.906652 -120.651587 286 25452ft 328kts
05-Jul-19 19:07 35.937891 -120.762441 286 23977ft 349kts
05-Jul-19 19:08 35.970033 -120.876914 286 22494ft 355kts
05-Jul-19 19:09 36.000425 -120.985829 286 21092ft 357kts
05-Jul-19 19:10 36.032284 -121.101468 288 19599ft 354kts
05-Jul-19 19:11 36.064042 -121.216501 289 18086ft 352kts
05-Jul-19 19:12 36.095861 -121.330575 289 16574ft 351kts
05-Jul-19 19:13 36.125861 -121.439272 289 15141ft 350kts
05-Jul-19 19:14 36.157163 -121.553523 289 13636ft 349kts
05-Jul-19 19:15 36.195689 -121.654758 324 12565ft 341kts
05-Jul-19 19:16 36.273121 -121.721496 324 11651ft 335kts
05-Jul-19 19:17 36.332658 -121.791280 312 9880ft 291kts
05-Jul-19 19:18 36.386635 -121.862203 312 7878ft 272kts
05-Jul-19 19:19 36.438629 -121.929896 313 5994ft 268kts
05-Jul-19 19:20 36.488850 -121.994823 313 4975ft 255kts
05-Jul-19 19:21 36.534786 -122.053829 313 4348ft 219kts
05-Jul-19 19:22 36.576721 -122.107263 313 3257ft 221kts
05-Jul-19 19:23 36.625637 -122.129219 48 2982ft 224kts
05-Jul-19 19:24 36.636148 -122.057907 83 2285ft 193kts
05-Jul-19 19:25 36.639031 -121.991803 120 2276ft 189kts
05-Jul-19 19:26 36.617737 -121.935238 114 1608ft 164kts
05-Jul-19 19:27 36.602949 -121.891537 113 872ft 120kts
05-Jul-19 19:28 36.590174 -121.853773 113 268ft 111kts
05-Jul-19 19:29 36.585251 -121.842126 292 260ft 15kts
05-Jul-19 19:30 36.587504 -121.848372 293 260ft 18kts
05-Jul-19 19:31 36.589104 -121.854247 265 260ft 11kts
05-Jul-19 19:32 36.588872 -121.854081 99 260ft 0kts

Navigation Log

Ident Type
Flight plan parsing failed, navigation log unavailable